createdAt,value
2023-03-27T00:02:20.885Z,3.73
2023-03-27T00:05:22.619Z,4.05
2023-03-27T00:08:24.766Z,3.90
2023-03-27T00:11:26.591Z,4.28
2023-03-27T00:14:28.753Z,4.20
2023-03-27T00:17:30.399Z,4.10
2023-03-27T00:20:37.478Z,3.50
2023-03-27T00:23:39.132Z,4.13
2023-03-27T00:26:40.967Z,5.10
2023-03-27T00:29:43.814Z,4.70
2023-03-27T00:32:45.565Z,4.53
2023-03-27T00:35:48.461Z,4.25
2023-03-27T00:38:53.106Z,3.55
2023-03-27T00:41:55.662Z,4.10
2023-03-27T00:44:57.488Z,4.13
2023-03-27T00:48:08.406Z,4.27
2023-03-27T00:51:10.189Z,5.20
2023-03-27T00:54:16.370Z,4.22
2023-03-27T00:57:19.518Z,4.40
2023-03-27T01:00:22.011Z,5.45
2023-03-27T01:03:30.451Z,3.43
2023-03-27T01:06:32.464Z,4.95
2023-03-27T01:09:34.324Z,5.95
2023-03-27T01:13:08.418Z,5.70
2023-03-27T01:16:17.833Z,5.28
2023-03-27T01:19:47.073Z,6.50
2023-03-27T01:24:00.466Z,3.88
2023-03-27T01:27:37.801Z,5.53
2023-03-27T01:30:49.093Z,4.13
2023-03-27T01:34:47.588Z,5.63
2023-03-27T01:38:24.197Z,4.23
2023-03-27T01:41:31.912Z,5.55
2023-03-27T01:44:43.191Z,4.05
2023-03-27T01:47:58.352Z,5.90
2023-03-27T01:51:07.973Z,4.60
2023-03-27T01:54:37.385Z,5.67
2023-03-27T01:57:50.457Z,4.85
2023-03-27T02:00:56.527Z,5.90
2023-03-27T02:04:02.328Z,6.50
2023-03-27T02:07:12.059Z,4.53
2023-03-27T02:10:19.996Z,5.63
2023-03-27T02:13:47.433Z,4.57
2023-03-27T02:16:55.127Z,6.07
2023-03-27T02:20:02.585Z,5.82
2023-03-27T02:23:04.747Z,5.70
2023-03-27T02:26:06.767Z,5.27
2023-03-27T02:29:35.222Z,5.93
2023-03-27T02:32:43.616Z,6.05
2023-03-27T02:36:11.207Z,6.53
2023-03-27T02:39:21.426Z,6.57
2023-03-27T02:42:26.072Z,5.37
2023-03-27T02:45:59.518Z,6.20
2023-03-27T02:49:09.900Z,5.28
2023-03-27T02:52:19.958Z,7.15
2023-03-27T02:55:26.303Z,6.30
2023-03-27T02:58:39.981Z,7.00
2023-03-27T03:01:45.175Z,7.38
2023-03-27T03:05:20.778Z,6.82
2023-03-27T03:08:22.671Z,6.15
2023-03-27T03:11:24.373Z,7.43
2023-03-27T03:14:31.673Z,6.50
2023-03-27T03:17:33.536Z,6.30
2023-03-27T03:20:35.697Z,6.95
2023-03-27T03:23:37.471Z,7.18
2023-03-27T03:26:40.059Z,6.47
2023-03-27T03:29:44.247Z,6.33
2023-03-27T03:32:47.445Z,6.32
2023-03-27T03:35:50.730Z,7.22
2023-03-27T03:38:52.495Z,8.32
2023-03-27T03:41:54.212Z,8.40
2023-03-27T03:44:55.854Z,8.13
2023-03-27T03:47:57.511Z,9.18
2023-03-27T03:50:59.420Z,8.48
2023-03-27T03:54:01.722Z,9.45
2023-03-27T03:57:03.519Z,8.80
2023-03-27T04:00:12.294Z,8.33
2023-03-27T04:03:14.928Z,7.65
2023-03-27T04:06:25.701Z,8.20
2023-03-27T04:09:27.515Z,9.60
2023-03-27T04:12:29.287Z,9.60
2023-03-27T04:15:31.108Z,8.27
2023-03-27T04:18:34.398Z,9.05
2023-03-27T04:21:36.490Z,7.97
2023-03-27T04:24:38.667Z,9.32
2023-03-27T04:27:43.374Z,9.05
2023-03-27T04:30:50.312Z,8.20
2023-03-27T04:33:52.478Z,8.25
2023-03-27T04:36:54.318Z,8.88
2023-03-27T04:39:56.448Z,10.18
2023-03-27T04:42:58.164Z,5.82
2023-03-27T04:45:59.734Z,5.87
2023-03-27T04:49:01.376Z,6.38
2023-03-27T04:52:02.988Z,6.35
2023-03-27T04:55:05.390Z,4.88
2023-03-27T04:58:08.107Z,4.45
2023-03-27T05:01:10.117Z,4.90
2023-03-27T05:04:11.780Z,5.85
2023-03-27T05:07:13.344Z,3.92
2023-03-27T05:10:17.274Z,6.00
2023-03-27T05:13:23.606Z,7.18
2023-03-27T05:16:26.789Z,5.40
2023-03-27T05:19:28.424Z,4.22
2023-03-27T05:22:30.026Z,5.30
2023-03-27T05:25:33.272Z,4.47
2023-03-27T05:28:35.052Z,4.53
2023-03-27T05:31:37.414Z,4.50
2023-03-27T05:34:39.115Z,5.50
2023-03-27T05:37:40.778Z,4.47
2023-03-27T05:40:42.504Z,6.57
2023-03-27T05:43:45.376Z,7.07
2023-03-27T05:46:47.245Z,7.70
2023-03-27T05:49:48.940Z,7.03
2023-03-27T05:53:04.745Z,7.68
2023-03-27T05:56:07.714Z,7.00
2023-03-27T05:59:09.369Z,8.07
2023-03-27T06:02:11.627Z,7.80
2023-03-27T06:05:14.347Z,10.60
2023-03-27T06:08:16.980Z,7.13
2023-03-27T06:11:18.634Z,8.05
2023-03-27T06:14:20.240Z,9.07
2023-03-27T06:17:21.989Z,13.33
2023-03-27T06:20:24.985Z,11.93
2023-03-27T06:23:27.092Z,7.50
2023-03-27T06:26:28.833Z,8.25
2023-03-27T06:29:30.594Z,5.45
2023-03-27T06:32:32.310Z,4.53
2023-03-27T06:35:35.192Z,4.13
2023-03-27T06:38:37.330Z,4.82
2023-03-27T06:41:38.957Z,6.25
2023-03-27T06:44:40.530Z,8.57
2023-03-27T06:47:54.792Z,6.30
2023-03-27T06:50:58.125Z,7.38
2023-03-27T06:54:00.157Z,6.72
2023-03-27T06:57:03.185Z,6.13
2023-03-27T07:00:17.035Z,5.90
2023-03-27T07:03:21.462Z,6.67
2023-03-27T07:06:25.216Z,7.20
2023-03-27T07:09:26.996Z,6.15
2023-03-27T07:12:28.603Z,7.13
2023-03-27T07:15:30.810Z,6.85
2023-03-27T07:18:32.702Z,6.50
2023-03-27T07:21:34.448Z,7.07
2023-03-27T07:24:36.551Z,7.35
2023-03-27T07:27:38.916Z,6.43
2023-03-27T07:30:41.458Z,7.38
2023-03-27T07:33:43.454Z,7.70
2023-03-27T07:36:45.448Z,6.47
2023-03-27T07:39:47.534Z,6.28
2023-03-27T07:42:50.251Z,6.22
2023-03-27T07:45:51.950Z,6.93
2023-03-27T07:48:55.518Z,7.23
2023-03-27T07:51:57.552Z,6.90
2023-03-27T07:54:59.285Z,6.50
2023-03-27T07:58:03.547Z,5.25
2023-03-27T08:01:06.329Z,6.03
2023-03-27T08:04:08.805Z,5.87
2023-03-27T08:07:11.690Z,6.72
2023-03-27T08:10:14.103Z,5.97
2023-03-27T08:13:15.946Z,5.28
2023-03-27T08:16:18.856Z,5.15
2023-03-27T08:19:21.403Z,7.27
2023-03-27T08:22:24.715Z,7.60
2023-03-27T08:25:29.770Z,5.57
2023-03-27T08:28:34.595Z,5.35
2023-03-27T08:31:36.324Z,5.63
2023-03-27T08:34:40.915Z,5.17
2023-03-27T08:37:43.972Z,5.85
2023-03-27T08:40:53.325Z,5.30
2023-03-27T08:43:57.262Z,5.28
2023-03-27T08:47:20.687Z,5.95
2023-03-27T08:50:36.361Z,6.57
2023-03-27T08:53:53.120Z,6.72
2023-03-27T08:56:55.019Z,7.75
2023-03-27T08:59:59.849Z,7.35
2023-03-27T09:03:12.208Z,6.55
2023-03-27T09:06:30.118Z,9.07
2023-03-27T09:10:17.985Z,7.43
2023-03-27T09:13:39.190Z,8.75
2023-03-27T09:16:49.368Z,8.82
2023-03-27T09:19:57.787Z,6.90
2023-03-27T09:23:11.067Z,8.53
2023-03-27T09:26:20.930Z,6.15
2023-03-27T09:29:26.855Z,6.50
2023-03-27T09:32:28.651Z,7.63
2023-03-27T09:35:38.734Z,6.60
2023-03-27T09:38:50.542Z,7.60
2023-03-27T09:41:59.644Z,7.55
2023-03-27T09:45:06.355Z,6.85
2023-03-27T09:48:14.585Z,7.05
2023-03-27T09:51:51.980Z,7.43
2023-03-27T09:54:54.998Z,9.07
2023-03-27T09:58:14.223Z,5.80
2023-03-27T10:01:30.447Z,6.43
2023-03-27T10:04:32.348Z,6.28
2023-03-27T10:07:34.635Z,6.50
2023-03-27T10:10:42.086Z,6.00
2023-03-27T10:13:47.443Z,6.15
2023-03-27T10:16:49.271Z,6.20
2023-03-27T10:20:01.445Z,7.03
2023-03-27T10:23:09.372Z,9.38
2023-03-27T10:26:18.932Z,9.97
2023-03-27T10:29:41.262Z,8.10
2023-03-27T10:32:47.492Z,8.05
2023-03-27T10:35:49.680Z,7.55
2023-03-27T10:38:57.970Z,6.30
2023-03-27T10:42:06.513Z,6.60
2023-03-27T10:45:16.442Z,6.00
2023-03-27T10:48:54.219Z,5.07
2023-03-27T10:52:14.165Z,5.13
2023-03-27T10:56:13.022Z,7.75
2023-03-27T10:59:28.228Z,7.60
2023-03-27T11:02:53.372Z,7.25
2023-03-27T11:05:55.056Z,7.97
2023-03-27T11:09:05.707Z,9.20
2023-03-27T11:12:14.575Z,10.48
2023-03-27T11:15:22.443Z,11.50
2023-03-27T11:18:30.218Z,14.15
2023-03-27T11:21:54.704Z,15.93
2023-03-27T11:25:02.966Z,21.92
2023-03-27T11:28:28.984Z,25.58
2023-03-27T11:31:52.588Z,23.33
2023-03-27T11:35:02.006Z,26.33
2023-03-27T11:38:32.008Z,26.85
2023-03-27T11:41:33.639Z,22.95
2023-03-27T11:44:35.793Z,23.45
2023-03-27T11:48:14.419Z,24.10
2023-03-27T11:51:34.826Z,22.98
2023-03-27T11:55:06.890Z,25.92
2023-03-27T11:58:17.574Z,23.50
2023-03-27T12:02:08.185Z,22.00
2023-03-27T12:05:33.380Z,20.50
2023-03-27T12:08:43.520Z,23.38
2023-03-27T12:12:20.153Z,21.83
2023-03-27T12:16:00.362Z,21.05
2023-03-27T12:19:29.822Z,18.58
2023-03-27T12:22:34.547Z,15.43
2023-03-27T12:25:54.861Z,16.80
2023-03-27T12:29:23.390Z,17.77
2023-03-27T12:32:41.184Z,17.38
2023-03-27T12:35:47.444Z,18.40
2023-03-27T12:38:49.280Z,12.27
2023-03-27T12:41:51.174Z,11.45
2023-03-27T12:45:12.630Z,10.70
2023-03-27T12:48:19.709Z,8.43
2023-03-27T12:51:48.349Z,6.63
2023-03-27T12:55:18.439Z,6.57
2023-03-27T12:58:34.568Z,6.50
2023-03-27T13:01:51.611Z,5.65
2023-03-27T13:05:27.537Z,5.50
2023-03-27T13:08:47.980Z,5.18
2023-03-27T13:12:05.083Z,5.30
2023-03-27T13:15:41.096Z,6.93
2023-03-27T13:18:55.996Z,5.28
2023-03-27T13:22:00.895Z,4.38
2023-03-27T13:25:25.271Z,6.05
2023-03-27T13:28:34.821Z,3.67
2023-03-27T13:31:46.154Z,4.65
2023-03-27T13:35:22.072Z,5.35
2023-03-27T13:39:08.825Z,4.90
2023-03-27T13:42:15.577Z,5.43
2023-03-27T13:45:20.790Z,4.67
2023-03-27T13:48:54.012Z,5.28
2023-03-27T13:52:36.702Z,6.93
2023-03-27T14:10:29.123Z,7.10
2023-03-27T14:13:45.720Z,8.18
2023-03-27T14:17:08.587Z,9.52
2023-03-27T14:20:28.309Z,7.25
2023-03-27T14:23:47.279Z,6.40
2023-03-27T14:26:49.534Z,7.28
2023-03-27T14:30:20.313Z,7.30
2023-03-27T14:33:22.106Z,7.93
2023-03-27T14:36:26.478Z,6.40
2023-03-27T14:39:28.446Z,7.43
2023-03-27T14:42:33.328Z,7.47
2023-03-27T14:45:40.777Z,9.55
2023-03-27T14:48:46.089Z,6.38
2023-03-27T14:51:49.903Z,6.63
2023-03-27T14:54:55.497Z,6.67
2023-03-27T14:58:00.775Z,6.40
2023-03-27T15:01:03.023Z,4.38
2023-03-27T15:04:07.404Z,5.47
2023-03-27T15:07:30.624Z,6.07
2023-03-27T15:10:32.772Z,6.07
2023-03-27T15:13:36.527Z,7.05
2023-03-27T15:16:39.117Z,4.60
2023-03-27T15:19:45.435Z,6.15
2023-03-27T15:22:53.206Z,5.88
2023-03-27T15:26:07.363Z,5.67
2023-03-27T15:29:27.394Z,5.50
2023-03-27T15:32:42.428Z,5.68
2023-03-27T15:35:47.401Z,5.47
2023-03-27T15:38:51.138Z,5.60
2023-03-27T15:41:56.241Z,4.97
2023-03-27T15:45:03.222Z,5.70
2023-03-27T15:48:19.822Z,5.57
2023-03-27T15:51:21.359Z,5.15
2023-03-27T15:54:28.846Z,5.88
2023-03-27T15:57:30.788Z,6.00
2023-03-27T16:00:32.746Z,5.25
2023-03-27T16:03:35.052Z,6.85
2023-03-27T16:06:40.781Z,5.00
2023-03-27T16:09:56.335Z,6.38
2023-03-27T16:13:02.876Z,5.00
2023-03-27T16:16:18.667Z,6.88
2023-03-27T16:19:20.464Z,6.70
2023-03-27T16:22:24.088Z,4.93
2023-03-27T16:25:26.035Z,7.10
2023-03-27T16:28:29.752Z,6.47
2023-03-27T16:31:31.672Z,4.75
2023-03-27T16:34:33.441Z,6.38
2023-03-27T16:37:35.046Z,5.68
2023-03-27T16:40:36.947Z,6.20
2023-03-27T16:43:38.620Z,4.80
2023-03-27T16:46:40.474Z,5.97
2023-03-27T16:49:42.999Z,7.55
2023-03-27T16:52:44.603Z,5.80
2023-03-27T16:55:46.376Z,5.38
2023-03-27T16:58:48.082Z,6.33
2023-03-27T17:01:50.408Z,6.75
2023-03-27T17:04:52.049Z,6.38
2023-03-27T17:07:53.684Z,8.25
2023-03-27T17:10:55.378Z,5.60
2023-03-27T17:13:57.329Z,6.30
2023-03-27T17:16:59.022Z,5.78
2023-03-27T17:20:00.967Z,5.95
2023-03-27T17:23:02.744Z,5.45
2023-03-27T17:26:05.398Z,6.70
2023-03-27T17:29:08.540Z,6.10
2023-03-27T17:32:10.536Z,6.10
2023-03-27T17:35:12.367Z,5.32
2023-03-27T17:38:14.083Z,5.13
2023-03-27T17:41:17.530Z,6.65
2023-03-27T17:44:19.153Z,5.13
2023-03-27T17:47:20.953Z,5.35
2023-03-27T17:50:22.630Z,8.30
2023-03-27T17:53:24.307Z,6.93
2023-03-27T17:56:26.177Z,5.10
2023-03-27T17:59:27.871Z,6.97
2023-03-27T18:02:29.767Z,4.60
2023-03-27T18:05:37.471Z,7.50
2023-03-27T18:08:40.879Z,6.78
2023-03-27T18:11:42.597Z,6.10
2023-03-27T18:14:44.805Z,5.57
2023-03-27T18:17:46.592Z,5.65
2023-03-27T18:20:55.269Z,5.78
2023-03-27T18:23:59.495Z,8.80
2023-03-27T18:27:01.282Z,6.55
2023-03-27T18:30:03.611Z,4.90
2023-03-27T18:33:05.506Z,6.25
2023-03-27T18:36:10.841Z,7.15
2023-03-27T18:39:12.552Z,6.10
2023-03-27T18:42:14.388Z,8.00
2023-03-27T18:45:16.964Z,7.30
2023-03-27T18:48:18.821Z,6.65
2023-03-27T18:51:20.649Z,7.07
2023-03-27T18:54:22.282Z,6.03
2023-03-27T18:57:24.106Z,7.72
2023-03-27T19:00:27.968Z,4.50
2023-03-27T19:03:35.156Z,6.45
2023-03-27T19:06:37.082Z,6.28
2023-03-27T19:09:41.690Z,6.22
2023-03-27T19:12:43.575Z,6.32
2023-03-27T19:15:45.270Z,5.63
2023-03-27T19:18:46.911Z,5.60
2023-03-27T19:21:49.204Z,7.53
2023-03-27T19:24:51.064Z,6.65
2023-03-27T19:27:52.642Z,6.00
2023-03-27T19:30:54.389Z,7.13
2023-03-27T19:33:56.181Z,6.38
2023-03-27T19:36:57.869Z,5.35
2023-03-27T19:39:59.753Z,5.65
2023-03-27T19:43:01.351Z,6.78
2023-03-27T19:46:15.050Z,6.60
2023-03-27T19:49:18.371Z,7.70
2023-03-27T19:52:20.192Z,8.50
2023-03-27T19:55:25.366Z,6.75
2023-03-27T19:58:29.114Z,4.93
2023-03-27T20:01:31.793Z,4.80
2023-03-27T20:04:33.666Z,5.28
2023-03-27T20:07:35.342Z,4.75
2023-03-27T20:10:36.936Z,5.90
2023-03-27T20:13:53.154Z,13.65
2023-03-27T20:16:57.483Z,5.37
2023-03-27T20:20:00.842Z,6.68
2023-03-27T20:23:02.765Z,5.00
2023-03-27T20:26:04.571Z,6.53
2023-03-27T20:29:11.746Z,4.75
2023-03-27T20:32:14.082Z,5.73
2023-03-27T20:35:23.485Z,4.60
2023-03-27T20:38:30.728Z,4.68
2023-03-27T20:41:39.315Z,4.97
2023-03-27T20:44:45.650Z,5.93
2023-03-27T20:47:48.075Z,7.87
2023-03-27T20:50:55.457Z,4.90
2023-03-27T20:53:58.229Z,4.68
2023-03-27T20:57:00.559Z,7.47
2023-03-27T21:00:04.537Z,4.38
2023-03-27T21:03:06.187Z,5.07
2023-03-27T21:06:10.724Z,4.80
2023-03-27T21:09:15.305Z,5.32
2023-03-27T21:12:17.022Z,6.10
2023-03-27T21:15:18.637Z,6.10
2023-03-27T21:18:20.328Z,6.10
2023-03-27T21:21:21.989Z,5.30
2023-03-27T21:24:23.561Z,5.25
2023-03-27T21:27:25.381Z,5.70
2023-03-27T21:30:46.823Z,4.95
2023-03-27T21:33:48.880Z,3.10
2023-03-27T21:36:50.544Z,5.43
2023-03-27T21:39:52.205Z,4.55
2023-03-27T21:42:54.222Z,5.38
2023-03-27T21:45:55.868Z,6.00
2023-03-27T21:48:57.537Z,5.07
2023-03-27T21:51:59.195Z,6.70
2023-03-27T21:55:03.308Z,4.85
2023-03-27T21:58:06.085Z,3.53
2023-03-27T22:01:08.231Z,5.40
2023-03-27T22:04:09.925Z,5.00
2023-03-27T22:07:11.576Z,6.25
2023-03-27T22:10:13.274Z,5.95
2023-03-27T22:13:14.920Z,5.13
2023-03-27T22:16:17.859Z,5.28
2023-03-27T22:19:19.497Z,4.87
2023-03-27T22:22:21.332Z,4.45
2023-03-27T22:25:23.196Z,5.65
2023-03-27T22:28:26.054Z,6.93
2023-03-27T22:31:29.280Z,5.07
2023-03-27T22:34:31.749Z,4.87
2023-03-27T22:37:36.818Z,5.35
2023-03-27T22:40:38.415Z,5.93
2023-03-27T22:43:40.305Z,5.88
2023-03-27T22:46:41.993Z,5.35
2023-03-27T22:49:43.588Z,5.30
2023-03-27T22:52:45.433Z,5.32
2023-03-27T22:55:51.878Z,5.05
2023-03-27T22:58:53.579Z,5.50
2023-03-27T23:01:55.494Z,6.38
2023-03-27T23:04:57.180Z,5.40
2023-03-27T23:07:58.791Z,4.03
2023-03-27T23:11:05.829Z,4.68
2023-03-27T23:14:07.457Z,5.47
2023-03-27T23:17:09.088Z,5.63
2023-03-27T23:20:10.807Z,4.07
2023-03-27T23:23:12.388Z,6.53
2023-03-27T23:26:14.644Z,5.85
2023-03-27T23:29:16.251Z,4.78
2023-03-27T23:32:17.832Z,5.18
2023-03-27T23:35:19.524Z,4.50
2023-03-27T23:38:21.131Z,6.13
2023-03-27T23:41:22.932Z,6.10
2023-03-27T23:44:24.525Z,5.57
2023-03-27T23:47:26.167Z,6.35
2023-03-27T23:50:27.875Z,4.60
2023-03-27T23:53:30.258Z,5.72
2023-03-27T23:56:32.002Z,6.28
2023-03-27T23:59:38.082Z,5.95
